createdAt,value
2022-11-22T00:00:42.028Z,-1.50
2022-11-22T00:03:08.936Z,-1.50
2022-11-22T00:05:35.750Z,-1.50
2022-11-22T00:08:03.572Z,-1.50
2022-11-22T00:10:30.447Z,-1.50
2022-11-22T00:12:57.361Z,-1.60
2022-11-22T00:15:24.486Z,-1.60
2022-11-22T00:17:51.371Z,-1.60
2022-11-22T00:20:18.382Z,-1.60
2022-11-22T00:22:45.368Z,-1.60
2022-11-22T00:25:12.966Z,-1.60
2022-11-22T00:27:40.147Z,-1.60
2022-11-22T00:30:08.062Z,-1.60
2022-11-22T00:32:35.007Z,-1.60
2022-11-22T00:35:01.982Z,-1.60
2022-11-22T00:37:28.953Z,-1.60
2022-11-22T00:39:55.855Z,-1.70
2022-11-22T00:42:22.788Z,-1.70
2022-11-22T00:44:49.716Z,-1.70
2022-11-22T00:47:16.696Z,-1.60
2022-11-22T00:49:43.537Z,-1.60
2022-11-22T00:52:10.513Z,-1.60
2022-11-22T00:54:37.408Z,-1.60
2022-11-22T00:57:04.339Z,-1.50
2022-11-22T00:59:31.428Z,-1.50
2022-11-22T01:01:58.680Z,-1.50
2022-11-22T01:04:25.520Z,-1.60
2022-11-22T01:06:52.441Z,-1.60
2022-11-22T01:09:21.579Z,-1.60
2022-11-22T01:11:48.870Z,-1.60
2022-11-22T01:14:16.747Z,-1.70
2022-11-22T01:16:43.901Z,-1.70
2022-11-22T01:19:11.074Z,-1.70
2022-11-22T01:21:38.107Z,-1.70
2022-11-22T01:24:05.261Z,-1.70
2022-11-22T01:26:33.260Z,-1.70
2022-11-22T01:29:00.041Z,-1.70
2022-11-22T01:31:26.932Z,-1.70
2022-11-22T01:33:53.786Z,-1.80
2022-11-22T01:36:20.630Z,-1.80
2022-11-22T01:38:47.547Z,-1.80
2022-11-22T01:41:14.730Z,-1.70
2022-11-22T01:43:41.584Z,-1.70
2022-11-22T01:46:23.148Z,-1.70
2022-11-22T01:49:13.960Z,-1.70
2022-11-22T01:51:43.553Z,-1.70
2022-11-22T01:54:17.770Z,-1.70
2022-11-22T01:56:48.935Z,-1.70
2022-11-22T01:59:19.674Z,-1.80
2022-11-22T02:01:46.834Z,-1.80
2022-11-22T02:04:17.838Z,-1.70
2022-11-22T02:07:19.748Z,-1.70
2022-11-22T02:09:50.378Z,-1.70
2022-11-22T02:12:20.137Z,-1.80
2022-11-22T02:14:47.685Z,-1.70
2022-11-22T02:17:14.611Z,-1.70
2022-11-22T02:19:44.315Z,-1.70
2022-11-22T02:22:43.761Z,-1.70
2022-11-22T02:25:33.012Z,-1.70
2022-11-22T02:28:00.145Z,-1.80
2022-11-22T02:30:26.976Z,-1.80
2022-11-22T02:32:53.972Z,-1.70
2022-11-22T02:35:26.378Z,-1.70
2022-11-22T02:38:14.125Z,-1.80
2022-11-22T02:40:46.977Z,-1.70
2022-11-22T02:43:42.462Z,-1.70
2022-11-22T02:46:12.536Z,-1.70
2022-11-22T02:48:46.321Z,-1.70
2022-11-22T02:51:16.882Z,-1.70
2022-11-22T02:53:44.408Z,-1.80
2022-11-22T02:56:11.258Z,-1.70
2022-11-22T02:58:38.659Z,-1.70
2022-11-22T03:01:05.715Z,-1.70
2022-11-22T03:03:33.329Z,-1.70
2022-11-22T03:06:00.434Z,-1.60
2022-11-22T03:08:27.378Z,-1.60
2022-11-22T03:10:56.624Z,-1.60
2022-11-22T03:13:23.625Z,-1.60
2022-11-22T03:15:50.753Z,-1.60
2022-11-22T03:18:17.717Z,-1.60
2022-11-22T03:20:44.600Z,-1.60
2022-11-22T03:23:11.639Z,-1.60
2022-11-22T03:25:40.481Z,-1.70
2022-11-22T03:28:07.776Z,-1.60
2022-11-22T03:30:34.755Z,-1.60
2022-11-22T03:33:01.859Z,-1.60
2022-11-22T03:35:28.743Z,-1.60
2022-11-22T03:37:55.676Z,-1.60
2022-11-22T03:40:22.459Z,-1.50
2022-11-22T03:42:49.296Z,-1.60
2022-11-22T03:45:16.480Z,-1.60
2022-11-22T03:47:43.367Z,-1.50
2022-11-22T03:50:10.369Z,-1.50
2022-11-22T03:52:37.323Z,-1.60
2022-11-22T03:55:04.398Z,-1.60
2022-11-22T03:57:31.278Z,-1.60
2022-11-22T03:59:58.201Z,-1.60
2022-11-22T04:02:25.098Z,-1.60
2022-11-22T04:04:51.930Z,-1.60
2022-11-22T04:07:18.862Z,-1.60
2022-11-22T04:09:45.708Z,-1.70
2022-11-22T04:12:12.546Z,-1.60
2022-11-22T04:14:57.917Z,-1.60
2022-11-22T04:17:51.122Z,-1.60
2022-11-22T04:20:38.609Z,-1.60
2022-11-22T04:23:11.500Z,-1.60
2022-11-22T04:25:40.559Z,-1.60
2022-11-22T04:28:09.358Z,-1.60
2022-11-22T04:30:55.068Z,-1.60
2022-11-22T04:33:22.468Z,-1.60
2022-11-22T04:35:50.214Z,-1.70
2022-11-22T04:38:18.509Z,-1.70
2022-11-22T04:40:46.322Z,-1.70
2022-11-22T04:43:41.929Z,-1.70
2022-11-22T04:46:08.832Z,-1.70
2022-11-22T04:48:35.854Z,-1.70
2022-11-22T04:51:22.452Z,-1.70
2022-11-22T04:53:49.819Z,-1.70
2022-11-22T04:56:17.289Z,-1.70
2022-11-22T04:58:44.133Z,-1.80
2022-11-22T05:01:11.416Z,-1.70
2022-11-22T05:03:38.349Z,-1.70
2022-11-22T05:06:05.949Z,-1.70
2022-11-22T05:08:33.025Z,-1.70
2022-11-22T05:11:00.047Z,-1.70
2022-11-22T05:13:35.852Z,-1.70
2022-11-22T05:16:04.547Z,-1.60
2022-11-22T05:18:31.804Z,-1.60
2022-11-22T05:21:00.843Z,-1.50
2022-11-22T05:23:46.473Z,-1.50
2022-11-22T05:26:13.278Z,-1.50
2022-11-22T05:28:40.390Z,-1.60
2022-11-22T05:31:12.714Z,-1.60
2022-11-22T05:33:41.446Z,-1.60
2022-11-22T05:36:08.808Z,-1.60
2022-11-22T05:38:37.996Z,-1.60
2022-11-22T05:41:06.701Z,-1.60
2022-11-22T05:43:33.854Z,-1.60
2022-11-22T05:46:07.666Z,-1.60
2022-11-22T05:48:35.050Z,-1.60
2022-11-22T05:51:06.580Z,-1.60
2022-11-22T05:53:34.101Z,-1.60
2022-11-22T05:56:08.627Z,-1.60
2022-11-22T05:58:36.545Z,-1.60
2022-11-22T06:01:09.275Z,-1.60
2022-11-22T06:03:36.582Z,-1.50
2022-11-22T06:06:05.479Z,-1.50
2022-11-22T06:08:34.448Z,-1.60
2022-11-22T06:11:14.519Z,-1.50
2022-11-22T06:13:44.163Z,-1.60
2022-11-22T06:16:11.579Z,-1.60
2022-11-22T06:18:38.968Z,-1.60
2022-11-22T06:21:08.473Z,-1.60
2022-11-22T06:23:35.474Z,-1.60
2022-11-22T06:26:05.639Z,-1.60
2022-11-22T06:28:34.341Z,-1.60
2022-11-22T06:31:02.877Z,-1.50
2022-11-22T06:33:29.882Z,-1.50
2022-11-22T06:36:10.039Z,-1.40
2022-11-22T06:38:38.324Z,-1.40
2022-11-22T06:41:07.613Z,-1.40
2022-11-22T06:43:35.685Z,-1.40
2022-11-22T06:46:03.547Z,-1.40
2022-11-22T06:48:32.474Z,-1.40
2022-11-22T06:51:27.100Z,-1.40
2022-11-22T06:53:55.459Z,-1.40
2022-11-22T06:56:27.810Z,-1.40
2022-11-22T06:58:55.137Z,-1.50
2022-11-22T07:01:32.735Z,-1.40
2022-11-22T07:04:00.650Z,-1.40
2022-11-22T07:06:33.040Z,-1.50
2022-11-22T07:09:01.057Z,-1.50
2022-11-22T07:11:30.221Z,-1.40
2022-11-22T07:14:03.561Z,-1.40
2022-11-22T07:16:35.126Z,-1.40
2022-11-22T07:19:02.064Z,-1.40
2022-11-22T07:21:29.028Z,-1.40
2022-11-22T07:23:56.262Z,-1.40
2022-11-22T07:26:25.302Z,-1.40
2022-11-22T07:28:52.148Z,-1.50
2022-11-22T07:31:19.425Z,-1.50
2022-11-22T07:33:47.131Z,-1.50
2022-11-22T07:36:16.961Z,-1.50
2022-11-22T07:38:43.870Z,-1.50
2022-11-22T07:41:10.853Z,-1.60
2022-11-22T07:43:38.228Z,-1.50
2022-11-22T07:46:08.059Z,-1.50
2022-11-22T07:48:35.149Z,-1.40
2022-11-22T07:51:08.639Z,-1.40
2022-11-22T07:53:36.029Z,-1.30
2022-11-22T07:56:04.810Z,-1.40
2022-11-22T07:58:32.766Z,-1.30
2022-11-22T08:01:05.413Z,-1.30
2022-11-22T08:03:32.469Z,-1.30
2022-11-22T08:06:04.137Z,-1.30
2022-11-22T08:08:31.118Z,-1.30
2022-11-22T08:10:58.315Z,-1.30
2022-11-22T08:13:26.479Z,-1.20
2022-11-22T08:15:54.787Z,-1.20
2022-11-22T08:18:22.679Z,-1.20
2022-11-22T08:20:49.587Z,-1.20
2022-11-22T08:23:16.649Z,-1.20
2022-11-22T08:25:43.626Z,-1.30
2022-11-22T08:28:11.127Z,-1.20
2022-11-22T08:30:38.105Z,-1.20
2022-11-22T08:33:05.011Z,-1.10
2022-11-22T08:35:33.188Z,-1.10
2022-11-22T08:38:00.329Z,-1.00
2022-11-22T08:40:27.281Z,-1.00
2022-11-22T08:42:55.824Z,-1.00
2022-11-22T08:45:22.859Z,-1.10
2022-11-22T08:47:49.781Z,-1.00
2022-11-22T08:50:18.467Z,-1.00
2022-11-22T08:52:45.715Z,-1.00
2022-11-22T08:55:12.564Z,-1.00
2022-11-22T08:57:39.601Z,-1.00
2022-11-22T09:00:07.357Z,-1.00
2022-11-22T09:02:34.363Z,-1.00
2022-11-22T09:05:01.266Z,-1.00
2022-11-22T09:10:16.762Z,-0.90
2022-11-22T09:12:45.778Z,-0.80
2022-11-22T09:15:13.414Z,-0.90
2022-11-22T09:17:40.574Z,-0.90
2022-11-22T09:20:08.482Z,-0.90
2022-11-22T09:22:35.709Z,-0.90
2022-11-22T09:25:03.970Z,-0.80
2022-11-22T09:27:31.972Z,-0.80
2022-11-22T09:29:58.872Z,-0.90
2022-11-22T09:32:32.197Z,-0.90
2022-11-22T09:35:00.703Z,-0.90
2022-11-22T09:37:27.547Z,-0.90
2022-11-22T09:39:54.374Z,-0.90
2022-11-22T09:42:38.061Z,-0.90
2022-11-22T09:45:42.684Z,-0.90
2022-11-22T09:48:12.386Z,-0.90
2022-11-22T09:51:00.993Z,-0.90
2022-11-22T09:54:00.412Z,-0.80
2022-11-22T09:56:28.961Z,-0.80
2022-11-22T09:59:20.429Z,-0.70
2022-11-22T10:02:18.103Z,-0.70
2022-11-22T10:05:00.488Z,-0.70
2022-11-22T10:07:48.645Z,-0.70
2022-11-22T10:10:44.896Z,-0.70
2022-11-22T10:13:15.228Z,-0.70
2022-11-22T10:15:54.181Z,-0.80
2022-11-22T10:18:47.386Z,-0.80
2022-11-22T10:21:15.191Z,-0.80
2022-11-22T10:23:43.926Z,-0.80
2022-11-22T10:26:22.491Z,-0.80
2022-11-22T10:28:58.250Z,-0.80
2022-11-22T10:32:26.804Z,-0.80
2022-11-22T10:35:08.374Z,-0.80
2022-11-22T10:37:44.850Z,-0.70
2022-11-22T10:40:25.951Z,-0.70
2022-11-22T10:43:30.488Z,-0.70
2022-11-22T10:46:24.263Z,-0.70
2022-11-22T10:49:23.882Z,-0.70
2022-11-22T10:52:18.585Z,-0.80
2022-11-22T10:54:57.602Z,-0.80
2022-11-22T10:57:37.896Z,-0.70
2022-11-22T11:00:17.124Z,-0.60
2022-11-22T11:03:26.458Z,-0.60
2022-11-22T11:06:24.538Z,-0.60
2022-11-22T11:11:52.251Z,-0.50
2022-11-22T11:14:28.273Z,-0.50
2022-11-22T11:16:55.542Z,-0.40
2022-11-22T11:19:29.166Z,-0.40
2022-11-22T11:22:15.816Z,-0.40
2022-11-22T11:24:42.891Z,-0.40
2022-11-22T11:27:11.464Z,-0.40
2022-11-22T11:30:04.365Z,-0.40
2022-11-22T11:32:54.862Z,-0.30
2022-11-22T11:35:28.284Z,-0.30
2022-11-22T11:37:56.186Z,-0.30
2022-11-22T11:40:31.757Z,-0.30
2022-11-22T11:43:20.432Z,-0.20
2022-11-22T11:45:47.653Z,-0.20
2022-11-22T11:48:41.148Z,-0.20
2022-11-22T11:51:15.518Z,-0.20
2022-11-22T11:54:01.969Z,-0.20
2022-11-22T11:56:40.210Z,-0.20
2022-11-22T11:59:22.493Z,-0.20
2022-11-22T12:01:52.760Z,-0.20
2022-11-22T12:04:26.816Z,-0.20
2022-11-22T12:07:03.500Z,-0.20
2022-11-22T12:09:40.263Z,-0.30
2022-11-22T12:12:36.038Z,-0.20
2022-11-22T12:15:32.769Z,-0.20
2022-11-22T12:18:04.185Z,-0.30
2022-11-22T12:20:45.910Z,-0.30
2022-11-22T12:23:32.461Z,-0.30
2022-11-22T12:26:00.685Z,-0.30
2022-11-22T12:28:28.901Z,-0.30
2022-11-22T12:31:02.273Z,-0.30
2022-11-22T12:33:47.850Z,-0.30
2022-11-22T12:36:48.981Z,-0.30
2022-11-22T12:39:21.849Z,-0.20
2022-11-22T12:41:52.707Z,-0.20
2022-11-22T12:44:21.116Z,-0.20
2022-11-22T12:46:56.410Z,-0.20
2022-11-22T12:49:39.759Z,-0.10
2022-11-22T12:52:24.545Z,-0.10
2022-11-22T12:54:59.342Z,-0.10
2022-11-22T12:57:45.738Z,0.00
2022-11-22T13:00:22.001Z,-0.10
2022-11-22T13:03:07.375Z,0.00
2022-11-22T13:05:43.390Z,0.00
2022-11-22T13:08:42.537Z,0.00
2022-11-22T13:11:32.863Z,0.00
2022-11-22T13:14:23.532Z,-0.10
2022-11-22T13:16:53.252Z,-0.10
2022-11-22T13:19:24.768Z,0.00
2022-11-22T13:22:19.644Z,-0.10
2022-11-22T13:24:46.609Z,-0.10
2022-11-22T13:27:19.225Z,-0.20
2022-11-22T13:29:47.659Z,-0.20
2022-11-22T13:32:20.552Z,-0.10
2022-11-22T13:35:14.023Z,0.00
2022-11-22T13:37:45.659Z,0.00
2022-11-22T13:40:29.882Z,-0.10
2022-11-22T13:43:21.533Z,-0.10
2022-11-22T13:46:04.522Z,-0.10
2022-11-22T13:48:40.290Z,-0.10
2022-11-22T13:51:12.000Z,0.00
2022-11-22T13:53:42.678Z,0.00
2022-11-22T13:56:15.486Z,0.00
2022-11-22T13:58:51.149Z,-0.10
2022-11-22T14:01:36.960Z,-0.10
2022-11-22T14:04:16.369Z,-0.10
2022-11-22T14:07:04.745Z,-0.10
2022-11-22T14:09:50.591Z,0.00
2022-11-22T14:12:24.762Z,-0.10
2022-11-22T14:15:13.187Z,-0.10
2022-11-22T14:18:09.714Z,-0.10
2022-11-22T14:21:13.602Z,-0.20
2022-11-22T14:23:59.620Z,-0.20
2022-11-22T14:26:45.649Z,-0.20
2022-11-22T14:29:37.254Z,-0.20
2022-11-22T14:32:13.675Z,-0.20
2022-11-22T14:35:03.553Z,-0.30
2022-11-22T14:37:33.668Z,-0.30
2022-11-22T14:40:09.634Z,-0.20
2022-11-22T14:42:40.569Z,-0.30
2022-11-22T14:45:10.474Z,-0.30
2022-11-22T14:47:44.965Z,-0.40
2022-11-22T14:50:20.984Z,-0.40
2022-11-22T14:52:48.539Z,-0.40
2022-11-22T14:55:30.827Z,-0.40
2022-11-22T14:58:23.527Z,-0.50
2022-11-22T15:01:32.141Z,-0.50
2022-11-22T15:09:13.831Z,-0.50
2022-11-22T15:09:20.510Z,-0.50
2022-11-22T15:10:34.898Z,-0.50
2022-11-22T15:13:34.686Z,-0.50
2022-11-22T15:59:41.314Z,-0.60
2022-11-22T16:02:30.286Z,-0.70
2022-11-22T16:06:08.768Z,-0.70
2022-11-22T16:07:52.469Z,-0.70
2022-11-22T16:10:37.222Z,-0.70
2022-11-22T16:13:19.216Z,-0.70
2022-11-22T16:16:04.862Z,-0.70
2022-11-22T16:18:32.195Z,-0.70
2022-11-22T16:21:27.338Z,-0.70
2022-11-22T16:24:30.437Z,-0.70
2022-11-22T16:27:03.983Z,-0.70
2022-11-22T16:29:34.054Z,-0.60
2022-11-22T16:32:13.092Z,-0.70
2022-11-22T16:34:43.337Z,-0.70
2022-11-22T16:37:34.723Z,-0.70
2022-11-22T16:40:06.257Z,-0.70
2022-11-22T16:42:33.600Z,-0.60
2022-11-22T16:45:03.930Z,-0.60
2022-11-22T16:47:31.561Z,-0.60
2022-11-22T16:49:58.437Z,-0.60
2022-11-22T16:52:25.633Z,-0.60
2022-11-22T16:54:52.516Z,-0.60
2022-11-22T16:57:19.428Z,-0.60
2022-11-22T16:59:46.353Z,-0.50
2022-11-22T17:02:15.444Z,-0.50
2022-11-22T17:04:45.630Z,-0.50
2022-11-22T17:07:13.633Z,-0.50
2022-11-22T17:09:40.472Z,-0.50
2022-11-22T17:12:17.985Z,-0.50
2022-11-22T17:14:48.401Z,-0.50
2022-11-22T17:17:15.526Z,-0.50
2022-11-22T17:19:57.717Z,-0.60
2022-11-22T17:22:24.497Z,-0.60
2022-11-22T17:24:51.466Z,-0.60
2022-11-22T17:27:18.431Z,-0.60
2022-11-22T17:29:50.704Z,-0.60
2022-11-22T17:32:18.914Z,-0.60
2022-11-22T17:34:45.921Z,-0.60
2022-11-22T17:37:13.199Z,-0.60
2022-11-22T17:39:40.975Z,-0.60
2022-11-22T17:42:08.163Z,-0.60
2022-11-22T17:44:34.965Z,-0.50
2022-11-22T17:47:01.908Z,-0.60
2022-11-22T17:49:29.247Z,-0.60
2022-11-22T17:51:56.368Z,-0.60
2022-11-22T17:54:23.268Z,-0.50
2022-11-22T17:56:50.336Z,-0.60
2022-11-22T17:59:17.209Z,-0.60
2022-11-22T18:01:44.340Z,-0.60
2022-11-22T18:04:11.407Z,-0.60
2022-11-22T18:06:38.241Z,-0.60
2022-11-22T18:09:05.184Z,-0.60
2022-11-22T18:11:32.183Z,-0.60
2022-11-22T18:13:59.102Z,-0.60
2022-11-22T18:16:28.645Z,-0.60
2022-11-22T18:18:57.916Z,-0.50
2022-11-22T18:21:30.407Z,-0.50
2022-11-22T18:23:59.327Z,-0.50
2022-11-22T18:26:42.329Z,-0.40
2022-11-22T18:29:41.181Z,-0.40
2022-11-22T18:31:58.395Z,-0.40
2022-11-22T18:34:26.121Z,-0.30
2022-11-22T18:36:56.366Z,-0.30
2022-11-22T18:39:26.576Z,-0.30
2022-11-22T18:41:53.507Z,-0.30
2022-11-22T18:44:20.420Z,-0.20
2022-11-22T18:46:48.130Z,-0.20
2022-11-22T18:49:15.415Z,-0.20
2022-11-22T18:51:42.398Z,-0.20
2022-11-22T18:54:12.795Z,-0.20
2022-11-22T18:56:40.972Z,-0.10
2022-11-22T18:59:10.619Z,-0.10
2022-11-22T19:01:37.620Z,0.00
2022-11-22T19:04:04.773Z,0.10
2022-11-22T19:06:31.788Z,0.10
2022-11-22T19:08:58.816Z,0.20
2022-11-22T19:11:28.454Z,0.30
2022-11-22T19:13:55.437Z,0.30
2022-11-22T19:16:22.891Z,0.30
2022-11-22T19:18:50.394Z,0.40
2022-11-22T19:21:23.030Z,0.40
2022-11-22T19:23:50.460Z,0.40
2022-11-22T19:26:21.535Z,0.40
2022-11-22T19:28:49.647Z,0.40
2022-11-22T19:31:19.844Z,0.40
2022-11-22T19:33:47.406Z,0.40
2022-11-22T19:36:17.353Z,0.40
2022-11-22T19:38:45.740Z,0.40
2022-11-22T19:41:18.099Z,0.40
2022-11-22T19:43:46.895Z,0.40
2022-11-22T19:46:14.474Z,0.40
2022-11-22T19:48:46.884Z,0.40
2022-11-22T19:51:15.608Z,0.40
2022-11-22T19:53:43.063Z,0.40
2022-11-22T19:56:20.391Z,0.40
2022-11-22T19:58:52.493Z,0.40
2022-11-22T20:01:20.316Z,0.50
2022-11-22T20:03:51.905Z,0.50
2022-11-22T20:06:19.181Z,0.50
2022-11-22T20:08:46.268Z,0.50
2022-11-22T20:11:15.365Z,0.50
2022-11-22T20:13:45.129Z,0.60
2022-11-22T20:16:21.098Z,0.60
2022-11-22T20:18:55.324Z,0.50
2022-11-22T20:21:22.888Z,0.60
2022-11-22T20:23:51.110Z,0.60
2022-11-22T20:26:19.945Z,0.60
2022-11-22T20:28:47.527Z,0.60
2022-11-22T20:31:19.426Z,0.60
2022-11-22T20:33:48.264Z,0.70
2022-11-22T20:36:17.902Z,0.70
2022-11-22T20:38:46.042Z,0.60
2022-11-22T20:41:14.419Z,0.70
2022-11-22T20:43:41.674Z,0.70
2022-11-22T20:46:17.858Z,0.70
2022-11-22T20:48:46.262Z,0.70
2022-11-22T20:51:19.071Z,0.60
2022-11-22T20:53:46.408Z,0.60
2022-11-22T20:56:14.079Z,0.60
2022-11-22T20:58:41.333Z,0.60
2022-11-22T21:01:11.746Z,0.70
2022-11-22T21:03:38.831Z,0.70
2022-11-22T21:06:05.995Z,0.60
2022-11-22T21:08:35.034Z,0.70
2022-11-22T21:11:06.817Z,0.70
2022-11-22T21:13:34.207Z,0.70
2022-11-22T21:16:08.751Z,0.70
2022-11-22T21:18:56.277Z,0.70
2022-11-22T21:21:24.935Z,0.70
2022-11-22T21:23:53.581Z,0.70
2022-11-22T21:26:21.829Z,0.70
2022-11-22T21:28:49.307Z,0.70
2022-11-22T21:31:16.731Z,0.70
2022-11-22T21:33:45.619Z,0.70
2022-11-22T21:36:12.927Z,0.70
2022-11-22T21:38:39.797Z,0.80
2022-11-22T21:41:38.148Z,0.80
2022-11-22T21:43:56.956Z,0.80
2022-11-22T21:46:25.258Z,0.80
2022-11-22T21:48:52.441Z,0.80
2022-11-22T21:51:19.401Z,0.70
2022-11-22T21:53:46.236Z,0.70
2022-11-22T21:56:13.104Z,0.80
2022-11-22T21:58:40.013Z,0.80
2022-11-22T22:01:13.616Z,0.80
2022-11-22T22:03:41.179Z,0.80
2022-11-22T22:06:08.322Z,0.80
2022-11-22T22:08:35.482Z,0.80
2022-11-22T22:11:05.100Z,0.80
2022-11-22T22:13:32.769Z,0.80
2022-11-22T22:16:03.777Z,0.80
2022-11-22T22:18:35.638Z,0.80
2022-11-22T22:21:07.711Z,0.80
2022-11-22T22:23:36.526Z,0.70
2022-11-22T22:26:08.609Z,0.70
2022-11-22T22:28:37.107Z,0.70
2022-11-22T22:31:07.025Z,0.70
2022-11-22T22:33:35.493Z,0.70
2022-11-22T22:36:02.687Z,0.70
2022-11-22T22:38:30.916Z,0.70
2022-11-22T22:40:59.908Z,0.70
2022-11-22T22:43:31.071Z,0.70
2022-11-22T22:46:06.477Z,0.70
2022-11-22T22:48:34.493Z,0.70
2022-11-22T22:51:21.752Z,0.70
2022-11-22T22:53:49.053Z,0.80
2022-11-22T22:56:18.978Z,0.80
2022-11-22T22:58:46.055Z,0.80
2022-11-22T23:01:21.321Z,0.80
2022-11-22T23:03:57.667Z,0.80
2022-11-22T23:06:27.101Z,0.80
2022-11-22T23:08:55.154Z,0.80
2022-11-22T23:11:43.808Z,0.80
2022-11-22T23:14:12.491Z,0.90
2022-11-22T23:16:40.016Z,0.90
2022-11-22T23:19:07.807Z,0.90
2022-11-22T23:21:35.264Z,0.90
2022-11-22T23:24:02.775Z,0.90
2022-11-22T23:26:29.788Z,0.90
2022-11-22T23:28:56.714Z,0.90
2022-11-22T23:31:23.564Z,0.90
2022-11-22T23:33:50.517Z,0.90
2022-11-22T23:36:19.497Z,0.90
2022-11-22T23:38:47.129Z,0.90
2022-11-22T23:41:16.024Z,0.90
2022-11-22T23:43:43.244Z,0.90
2022-11-22T23:46:17.861Z,0.90
2022-11-22T23:48:46.604Z,0.90
2022-11-22T23:51:14.249Z,0.90
2022-11-22T23:53:41.509Z,0.90
2022-11-22T23:56:17.945Z,0.90
2022-11-22T23:58:48.368Z,0.90
